sensor_id;sensor_type;location;lat;lon;timestamp;P1;durP1;ratioP1;P2;durP2;ratioP2
6013;SDS011;3035;49.928;8.410;2022-12-20T00:00:58;59.97;;;27.43;;
6013;SDS011;3035;49.928;8.410;2022-12-20T00:03:26;55.83;;;26.47;;
6013;SDS011;3035;49.928;8.410;2022-12-20T00:05:54;61.40;;;27.20;;
6013;SDS011;3035;49.928;8.410;2022-12-20T00:08:22;73.47;;;28.90;;
6013;SDS011;3035;49.928;8.410;2022-12-20T00:10:52;66.43;;;27.80;;
6013;SDS011;3035;49.928;8.410;2022-12-20T00:13:20;58.50;;;28.20;;
6013;SDS011;3035;49.928;8.410;2022-12-20T00:15:48;68.00;;;27.47;;
6013;SDS011;3035;49.928;8.410;2022-12-20T00:18:16;58.13;;;25.73;;
6013;SDS011;3035;49.928;8.410;2022-12-20T00:20:45;68.77;;;27.70;;
6013;SDS011;3035;49.928;8.410;2022-12-20T00:23:14;62.73;;;27.10;;
6013;SDS011;3035;49.928;8.410;2022-12-20T00:25:42;60.20;;;28.07;;
6013;SDS011;3035;49.928;8.410;2022-12-20T00:28:11;58.47;;;27.33;;
6013;SDS011;3035;49.928;8.410;2022-12-20T00:30:39;56.60;;;25.87;;
6013;SDS011;3035;49.928;8.410;2022-12-20T00:33:08;72.57;;;29.60;;
6013;SDS011;3035;49.928;8.410;2022-12-20T00:35:40;62.60;;;28.00;;
6013;SDS011;3035;49.928;8.410;2022-12-20T00:38:04;55.27;;;26.53;;
6013;SDS011;3035;49.928;8.410;2022-12-20T00:40:34;61.27;;;27.83;;
6013;SDS011;3035;49.928;8.410;2022-12-20T00:43:02;53.80;;;26.40;;
6013;SDS011;3035;49.928;8.410;2022-12-20T00:45:31;64.43;;;26.20;;
6013;SDS011;3035;49.928;8.410;2022-12-20T00:48:00;58.53;;;27.33;;
6013;SDS011;3035;49.928;8.410;2022-12-20T00:50:28;52.50;;;25.57;;
6013;SDS011;3035;49.928;8.410;2022-12-20T00:52:56;51.77;;;24.53;;
6013;SDS011;3035;49.928;8.410;2022-12-20T00:55:25;57.90;;;26.73;;
6013;SDS011;3035;49.928;8.410;2022-12-20T00:57:54;64.23;;;27.67;;
6013;SDS011;3035;49.928;8.410;2022-12-20T01:00:22;48.60;;;24.90;;
6013;SDS011;3035;49.928;8.410;2022-12-20T01:02:50;63.73;;;27.00;;
6013;SDS011;3035;49.928;8.410;2022-12-20T01:05:18;58.77;;;26.90;;
6013;SDS011;3035;49.928;8.410;2022-12-20T01:07:46;51.67;;;25.47;;
6013;SDS011;3035;49.928;8.410;2022-12-20T01:10:15;50.27;;;24.43;;
6013;SDS011;3035;49.928;8.410;2022-12-20T01:12:43;57.50;;;26.30;;
6013;SDS011;3035;49.928;8.410;2022-12-20T01:15:12;52.40;;;24.57;;
6013;SDS011;3035;49.928;8.410;2022-12-20T01:17:41;57.70;;;27.30;;
6013;SDS011;3035;49.928;8.410;2022-12-20T01:20:09;49.80;;;24.27;;
6013;SDS011;3035;49.928;8.410;2022-12-20T01:22:39;48.90;;;24.20;;
6013;SDS011;3035;49.928;8.410;2022-12-20T01:25:07;59.57;;;25.63;;
6013;SDS011;3035;49.928;8.410;2022-12-20T01:27:35;64.13;;;27.00;;
6013;SDS011;3035;49.928;8.410;2022-12-20T01:30:03;50.23;;;23.87;;
6013;SDS011;3035;49.928;8.410;2022-12-20T01:32:32;53.90;;;25.77;;
6013;SDS011;3035;49.928;8.410;2022-12-20T01:35:01;60.70;;;28.20;;
6013;SDS011;3035;49.928;8.410;2022-12-20T01:37:30;56.60;;;26.87;;
6013;SDS011;3035;49.928;8.410;2022-12-20T01:39:58;52.10;;;24.53;;
6013;SDS011;3035;49.928;8.410;2022-12-20T01:42:27;57.60;;;25.50;;
6013;SDS011;3035;49.928;8.410;2022-12-20T01:44:56;53.30;;;25.23;;
6013;SDS011;3035;49.928;8.410;2022-12-20T01:47:24;56.53;;;26.07;;
6013;SDS011;3035;49.928;8.410;2022-12-20T01:49:52;49.57;;;24.80;;
6013;SDS011;3035;49.928;8.410;2022-12-20T01:52:23;54.33;;;24.70;;
6013;SDS011;3035;49.928;8.410;2022-12-20T01:54:56;52.67;;;27.50;;
6013;SDS011;3035;49.928;8.410;2022-12-20T01:57:26;64.77;;;28.77;;
6013;SDS011;3035;49.928;8.410;2022-12-20T02:00:13;61.37;;;28.37;;
6013;SDS011;3035;49.928;8.410;2022-12-20T02:02:44;57.50;;;26.00;;
6013;SDS011;3035;49.928;8.410;2022-12-20T02:05:12;58.20;;;26.37;;
6013;SDS011;3035;49.928;8.410;2022-12-20T02:07:40;57.67;;;27.23;;
6013;SDS011;3035;49.928;8.410;2022-12-20T02:10:08;58.97;;;26.70;;
6013;SDS011;3035;49.928;8.410;2022-12-20T02:12:39;60.23;;;25.17;;
6013;SDS011;3035;49.928;8.410;2022-12-20T02:15:13;59.13;;;24.13;;
6013;SDS011;3035;49.928;8.410;2022-12-20T02:20:48;52.60;;;25.50;;
6013;SDS011;3035;49.928;8.410;2022-12-20T02:23:18;58.67;;;24.47;;
6013;SDS011;3035;49.928;8.410;2022-12-20T02:26:16;57.23;;;25.37;;
6013;SDS011;3035;49.928;8.410;2022-12-20T02:31:41;54.70;;;24.70;;
6013;SDS011;3035;49.928;8.410;2022-12-20T02:34:10;49.77;;;24.93;;
6013;SDS011;3035;49.928;8.410;2022-12-20T02:36:39;50.60;;;25.67;;
6013;SDS011;3035;49.928;8.410;2022-12-20T02:39:11;61.53;;;25.00;;
6013;SDS011;3035;49.928;8.410;2022-12-20T02:41:38;52.40;;;24.23;;
6013;SDS011;3035;49.928;8.410;2022-12-20T02:44:08;56.83;;;25.00;;
6013;SDS011;3035;49.928;8.410;2022-12-20T02:46:41;64.83;;;26.27;;
6013;SDS011;3035;49.928;8.410;2022-12-20T02:49:11;51.27;;;23.43;;
6013;SDS011;3035;49.928;8.410;2022-12-20T02:51:40;58.33;;;24.07;;
6013;SDS011;3035;49.928;8.410;2022-12-20T02:54:07;48.93;;;22.47;;
6013;SDS011;3035;49.928;8.410;2022-12-20T02:56:39;63.43;;;23.50;;
6013;SDS011;3035;49.928;8.410;2022-12-20T02:59:11;49.93;;;23.77;;
6013;SDS011;3035;49.928;8.410;2022-12-20T03:01:40;53.87;;;25.60;;
6013;SDS011;3035;49.928;8.410;2022-12-20T03:04:08;60.40;;;23.53;;
6013;SDS011;3035;49.928;8.410;2022-12-20T03:06:37;57.37;;;24.37;;
6013;SDS011;3035;49.928;8.410;2022-12-20T03:09:04;52.03;;;23.53;;
6013;SDS011;3035;49.928;8.410;2022-12-20T03:11:34;47.53;;;21.93;;
6013;SDS011;3035;49.928;8.410;2022-12-20T03:14:02;47.83;;;22.90;;
6013;SDS011;3035;49.928;8.410;2022-12-20T03:16:30;68.97;;;27.07;;
6013;SDS011;3035;49.928;8.410;2022-12-20T03:18:58;51.40;;;24.40;;
6013;SDS011;3035;49.928;8.410;2022-12-20T03:21:27;51.43;;;23.33;;
6013;SDS011;3035;49.928;8.410;2022-12-20T03:23:56;47.33;;;23.23;;
6013;SDS011;3035;49.928;8.410;2022-12-20T03:26:24;49.17;;;23.00;;
6013;SDS011;3035;49.928;8.410;2022-12-20T03:28:52;46.63;;;21.53;;
6013;SDS011;3035;49.928;8.410;2022-12-20T03:31:21;53.37;;;24.47;;
6013;SDS011;3035;49.928;8.410;2022-12-20T03:33:49;48.53;;;22.20;;
6013;SDS011;3035;49.928;8.410;2022-12-20T03:36:18;54.63;;;22.03;;
6013;SDS011;3035;49.928;8.410;2022-12-20T03:38:46;56.43;;;23.80;;
6013;SDS011;3035;49.928;8.410;2022-12-20T03:41:16;48.43;;;22.17;;
6013;SDS011;3035;49.928;8.410;2022-12-20T03:43:44;43.50;;;22.67;;
6013;SDS011;3035;49.928;8.410;2022-12-20T03:46:13;51.27;;;23.67;;
6013;SDS011;3035;49.928;8.410;2022-12-20T03:48:41;47.63;;;22.30;;
6013;SDS011;3035;49.928;8.410;2022-12-20T03:51:09;44.07;;;22.17;;
6013;SDS011;3035;49.928;8.410;2022-12-20T03:53:38;47.10;;;18.60;;
6013;SDS011;3035;49.928;8.410;2022-12-20T03:56:07;54.37;;;23.93;;
6013;SDS011;3035;49.928;8.410;2022-12-20T03:58:35;51.90;;;22.47;;
6013;SDS011;3035;49.928;8.410;2022-12-20T04:03:48;45.47;;;22.57;;
6013;SDS011;3035;49.928;8.410;2022-12-20T04:06:17;44.20;;;20.90;;
6013;SDS011;3035;49.928;8.410;2022-12-20T04:08:45;45.97;;;21.70;;
6013;SDS011;3035;49.928;8.410;2022-12-20T04:11:14;43.03;;;21.27;;
6013;SDS011;3035;49.928;8.410;2022-12-20T04:13:45;47.10;;;21.00;;
6013;SDS011;3035;49.928;8.410;2022-12-20T04:16:13;49.33;;;21.03;;
6013;SDS011;3035;49.928;8.410;2022-12-20T04:18:41;38.53;;;20.13;;
6013;SDS011;3035;49.928;8.410;2022-12-20T04:21:11;43.60;;;20.80;;
6013;SDS011;3035;49.928;8.410;2022-12-20T04:23:39;39.30;;;20.30;;
6013;SDS011;3035;49.928;8.410;2022-12-20T04:26:07;53.83;;;22.87;;
6013;SDS011;3035;49.928;8.410;2022-12-20T04:28:36;43.63;;;22.93;;
6013;SDS011;3035;49.928;8.410;2022-12-20T04:31:04;58.10;;;23.10;;
6013;SDS011;3035;49.928;8.410;2022-12-20T04:33:33;45.57;;;22.53;;
6013;SDS011;3035;49.928;8.410;2022-12-20T04:36:01;48.47;;;21.93;;
6013;SDS011;3035;49.928;8.410;2022-12-20T04:38:29;49.60;;;22.60;;
6013;SDS011;3035;49.928;8.410;2022-12-20T04:40:58;48.47;;;22.90;;
6013;SDS011;3035;49.928;8.410;2022-12-20T04:43:26;50.17;;;23.03;;
6013;SDS011;3035;49.928;8.410;2022-12-20T04:45:54;50.63;;;22.47;;
6013;SDS011;3035;49.928;8.410;2022-12-20T04:48:24;42.27;;;20.80;;
6013;SDS011;3035;49.928;8.410;2022-12-20T04:50:52;44.83;;;19.50;;
6013;SDS011;3035;49.928;8.410;2022-12-20T04:53:21;41.47;;;19.30;;
6013;SDS011;3035;49.928;8.410;2022-12-20T04:55:55;45.57;;;22.33;;
6013;SDS011;3035;49.928;8.410;2022-12-20T04:58:24;38.17;;;20.67;;
6013;SDS011;3035;49.928;8.410;2022-12-20T05:00:52;44.63;;;22.40;;
6013;SDS011;3035;49.928;8.410;2022-12-20T05:03:22;43.57;;;20.10;;
6013;SDS011;3035;49.928;8.410;2022-12-20T05:05:49;44.07;;;20.13;;
6013;SDS011;3035;49.928;8.410;2022-12-20T05:08:18;43.67;;;21.70;;
6013;SDS011;3035;49.928;8.410;2022-12-20T05:10:46;47.00;;;19.60;;
6013;SDS011;3035;49.928;8.410;2022-12-20T05:13:15;43.53;;;20.20;;
6013;SDS011;3035;49.928;8.410;2022-12-20T05:15:44;41.60;;;20.93;;
6013;SDS011;3035;49.928;8.410;2022-12-20T05:18:12;39.43;;;20.67;;
6013;SDS011;3035;49.928;8.410;2022-12-20T05:20:40;45.73;;;21.60;;
6013;SDS011;3035;49.928;8.410;2022-12-20T05:23:09;52.20;;;22.97;;
6013;SDS011;3035;49.928;8.410;2022-12-20T05:25:45;41.47;;;20.30;;
6013;SDS011;3035;49.928;8.410;2022-12-20T05:28:30;48.53;;;22.10;;
6013;SDS011;3035;49.928;8.410;2022-12-20T05:30:59;48.13;;;22.23;;
6013;SDS011;3035;49.928;8.410;2022-12-20T05:33:28;40.93;;;21.47;;
6013;SDS011;3035;49.928;8.410;2022-12-20T05:35:57;53.20;;;22.27;;
6013;SDS011;3035;49.928;8.410;2022-12-20T05:38:26;50.70;;;21.93;;
6013;SDS011;3035;49.928;8.410;2022-12-20T05:40:55;45.20;;;20.87;;
6013;SDS011;3035;49.928;8.410;2022-12-20T05:43:23;42.10;;;21.90;;
6013;SDS011;3035;49.928;8.410;2022-12-20T05:45:52;37.30;;;18.90;;
6013;SDS011;3035;49.928;8.410;2022-12-20T05:48:21;44.27;;;21.40;;
6013;SDS011;3035;49.928;8.410;2022-12-20T05:50:49;55.13;;;22.70;;
6013;SDS011;3035;49.928;8.410;2022-12-20T05:53:17;43.00;;;21.50;;
6013;SDS011;3035;49.928;8.410;2022-12-20T05:55:47;53.20;;;21.93;;
6013;SDS011;3035;49.928;8.410;2022-12-20T05:58:15;49.73;;;22.70;;
6013;SDS011;3035;49.928;8.410;2022-12-20T06:00:43;43.37;;;20.40;;
6013;SDS011;3035;49.928;8.410;2022-12-20T06:03:11;43.40;;;21.30;;
6013;SDS011;3035;49.928;8.410;2022-12-20T06:05:41;37.63;;;18.77;;
6013;SDS011;3035;49.928;8.410;2022-12-20T06:08:10;42.60;;;19.90;;
6013;SDS011;3035;49.928;8.410;2022-12-20T06:10:40;39.70;;;20.80;;
6013;SDS011;3035;49.928;8.410;2022-12-20T06:13:08;40.77;;;18.67;;
6013;SDS011;3035;49.928;8.410;2022-12-20T06:15:37;39.70;;;20.90;;
6013;SDS011;3035;49.928;8.410;2022-12-20T06:18:06;43.23;;;21.47;;
6013;SDS011;3035;49.928;8.410;2022-12-20T06:20:35;41.33;;;20.07;;
6013;SDS011;3035;49.928;8.410;2022-12-20T06:23:03;39.60;;;19.40;;
6013;SDS011;3035;49.928;8.410;2022-12-20T06:25:31;39.30;;;21.53;;
6013;SDS011;3035;49.928;8.410;2022-12-20T06:28:00;56.10;;;21.33;;
6013;SDS011;3035;49.928;8.410;2022-12-20T06:30:28;44.30;;;23.20;;
6013;SDS011;3035;49.928;8.410;2022-12-20T06:32:57;45.33;;;21.53;;
6013;SDS011;3035;49.928;8.410;2022-12-20T06:35:26;47.43;;;21.83;;
6013;SDS011;3035;49.928;8.410;2022-12-20T06:37:54;48.43;;;19.77;;
6013;SDS011;3035;49.928;8.410;2022-12-20T06:40:22;49.87;;;21.67;;
6013;SDS011;3035;49.928;8.410;2022-12-20T06:42:50;44.73;;;22.77;;
6013;SDS011;3035;49.928;8.410;2022-12-20T06:45:18;46.10;;;22.00;;
6013;SDS011;3035;49.928;8.410;2022-12-20T06:47:47;44.03;;;22.57;;
6013;SDS011;3035;49.928;8.410;2022-12-20T06:50:16;42.40;;;20.40;;
6013;SDS011;3035;49.928;8.410;2022-12-20T06:52:44;41.10;;;20.93;;
6013;SDS011;3035;49.928;8.410;2022-12-20T06:55:13;40.33;;;19.30;;
6013;SDS011;3035;49.928;8.410;2022-12-20T06:57:42;42.60;;;20.07;;
6013;SDS011;3035;49.928;8.410;2022-12-20T07:00:10;44.00;;;19.87;;
6013;SDS011;3035;49.928;8.410;2022-12-20T07:02:40;34.00;;;18.23;;
6013;SDS011;3035;49.928;8.410;2022-12-20T07:05:08;40.73;;;20.40;;
6013;SDS011;3035;49.928;8.410;2022-12-20T07:07:37;35.03;;;19.77;;
6013;SDS011;3035;49.928;8.410;2022-12-20T07:10:06;44.17;;;20.67;;
6013;SDS011;3035;49.928;8.410;2022-12-20T07:12:36;45.00;;;19.47;;
6013;SDS011;3035;49.928;8.410;2022-12-20T07:15:04;45.73;;;19.17;;
6013;SDS011;3035;49.928;8.410;2022-12-20T07:17:34;43.30;;;19.83;;
6013;SDS011;3035;49.928;8.410;2022-12-20T07:20:02;41.00;;;18.97;;
6013;SDS011;3035;49.928;8.410;2022-12-20T07:22:32;36.90;;;19.63;;
6013;SDS011;3035;49.928;8.410;2022-12-20T07:25:00;42.13;;;20.30;;
6013;SDS011;3035;49.928;8.410;2022-12-20T07:27:28;39.40;;;20.07;;
6013;SDS011;3035;49.928;8.410;2022-12-20T07:29:57;41.33;;;19.07;;
6013;SDS011;3035;49.928;8.410;2022-12-20T07:32:25;40.53;;;20.20;;
6013;SDS011;3035;49.928;8.410;2022-12-20T07:34:54;45.17;;;20.00;;
6013;SDS011;3035;49.928;8.410;2022-12-20T07:37:24;37.50;;;19.60;;
6013;SDS011;3035;49.928;8.410;2022-12-20T07:39:52;37.60;;;20.10;;
6013;SDS011;3035;49.928;8.410;2022-12-20T07:42:20;40.17;;;20.67;;
6013;SDS011;3035;49.928;8.410;2022-12-20T07:44:48;40.10;;;18.80;;
6013;SDS011;3035;49.928;8.410;2022-12-20T07:47:17;48.13;;;20.77;;
6013;SDS011;3035;49.928;8.410;2022-12-20T07:49:45;34.53;;;17.83;;
6013;SDS011;3035;49.928;8.410;2022-12-20T07:52:15;42.87;;;19.10;;
6013;SDS011;3035;49.928;8.410;2022-12-20T07:54:44;37.40;;;19.50;;
6013;SDS011;3035;49.928;8.410;2022-12-20T07:57:22;32.07;;;17.83;;
6013;SDS011;3035;49.928;8.410;2022-12-20T07:59:53;39.33;;;18.13;;
6013;SDS011;3035;49.928;8.410;2022-12-20T08:02:25;33.73;;;19.07;;
6013;SDS011;3035;49.928;8.410;2022-12-20T08:05:00;35.07;;;17.57;;
6013;SDS011;3035;49.928;8.410;2022-12-20T08:07:28;42.50;;;19.23;;
6013;SDS011;3035;49.928;8.410;2022-12-20T08:09:57;40.37;;;20.00;;
6013;SDS011;3035;49.928;8.410;2022-12-20T08:12:26;34.50;;;18.77;;
6013;SDS011;3035;49.928;8.410;2022-12-20T08:14:55;32.17;;;18.70;;
6013;SDS011;3035;49.928;8.410;2022-12-20T08:17:24;43.43;;;19.27;;
6013;SDS011;3035;49.928;8.410;2022-12-20T08:19:52;45.43;;;20.20;;
6013;SDS011;3035;49.928;8.410;2022-12-20T08:22:21;35.57;;;19.10;;
6013;SDS011;3035;49.928;8.410;2022-12-20T08:24:49;43.37;;;19.70;;
6013;SDS011;3035;49.928;8.410;2022-12-20T08:27:17;34.83;;;18.60;;
6013;SDS011;3035;49.928;8.410;2022-12-20T08:29:45;37.53;;;19.00;;
6013;SDS011;3035;49.928;8.410;2022-12-20T08:32:14;36.43;;;19.57;;
6013;SDS011;3035;49.928;8.410;2022-12-20T08:34:42;41.37;;;20.87;;
6013;SDS011;3035;49.928;8.410;2022-12-20T08:37:11;41.93;;;19.50;;
6013;SDS011;3035;49.928;8.410;2022-12-20T08:39:40;47.03;;;20.73;;
6013;SDS011;3035;49.928;8.410;2022-12-20T08:42:09;39.60;;;20.07;;
6013;SDS011;3035;49.928;8.410;2022-12-20T08:44:37;39.20;;;21.03;;
6013;SDS011;3035;49.928;8.410;2022-12-20T08:47:05;54.10;;;22.83;;
6013;SDS011;3035;49.928;8.410;2022-12-20T08:49:33;41.60;;;20.33;;
6013;SDS011;3035;49.928;8.410;2022-12-20T08:52:01;42.70;;;21.83;;
6013;SDS011;3035;49.928;8.410;2022-12-20T08:54:30;40.07;;;19.87;;
6013;SDS011;3035;49.928;8.410;2022-12-20T08:56:59;44.10;;;20.30;;
6013;SDS011;3035;49.928;8.410;2022-12-20T08:59:27;40.50;;;20.70;;
6013;SDS011;3035;49.928;8.410;2022-12-20T09:01:56;35.47;;;18.90;;
6013;SDS011;3035;49.928;8.410;2022-12-20T09:04:24;32.43;;;18.60;;
6013;SDS011;3035;49.928;8.410;2022-12-20T09:06:52;35.63;;;19.87;;
6013;SDS011;3035;49.928;8.410;2022-12-20T09:09:21;50.80;;;22.17;;
6013;SDS011;3035;49.928;8.410;2022-12-20T09:11:49;37.97;;;19.23;;
6013;SDS011;3035;49.928;8.410;2022-12-20T09:14:18;39.13;;;20.23;;
6013;SDS011;3035;49.928;8.410;2022-12-20T09:16:47;41.20;;;19.90;;
6013;SDS011;3035;49.928;8.410;2022-12-20T09:19:15;44.77;;;20.33;;
6013;SDS011;3035;49.928;8.410;2022-12-20T09:21:43;39.73;;;19.90;;
6013;SDS011;3035;49.928;8.410;2022-12-20T09:24:12;39.57;;;18.83;;
6013;SDS011;3035;49.928;8.410;2022-12-20T09:26:40;40.13;;;20.00;;
6013;SDS011;3035;49.928;8.410;2022-12-20T09:29:09;39.87;;;20.90;;
6013;SDS011;3035;49.928;8.410;2022-12-20T09:31:38;41.33;;;20.57;;
6013;SDS011;3035;49.928;8.410;2022-12-20T09:34:06;45.70;;;21.10;;
6013;SDS011;3035;49.928;8.410;2022-12-20T09:36:35;45.93;;;20.47;;
6013;SDS011;3035;49.928;8.410;2022-12-20T09:39:03;40.10;;;20.07;;
6013;SDS011;3035;49.928;8.410;2022-12-20T09:41:35;46.23;;;21.63;;
6013;SDS011;3035;49.928;8.410;2022-12-20T09:44:06;42.47;;;20.47;;
6013;SDS011;3035;49.928;8.410;2022-12-20T09:46:52;42.13;;;19.70;;
6013;SDS011;3035;49.928;8.410;2022-12-20T09:49:26;45.97;;;21.33;;
6013;SDS011;3035;49.928;8.410;2022-12-20T09:55:06;40.80;;;21.50;;
6013;SDS011;3035;49.928;8.410;2022-12-20T10:00:45;43.50;;;19.60;;
6013;SDS011;3035;49.928;8.410;2022-12-20T10:03:15;42.57;;;22.43;;
6013;SDS011;3035;49.928;8.410;2022-12-20T10:05:45;43.73;;;21.20;;
6013;SDS011;3035;49.928;8.410;2022-12-20T10:08:16;43.00;;;21.80;;
6013;SDS011;3035;49.928;8.410;2022-12-20T10:10:56;43.67;;;20.93;;
6013;SDS011;3035;49.928;8.410;2022-12-20T10:16:18;45.30;;;22.00;;
6013;SDS011;3035;49.928;8.410;2022-12-20T10:24:52;41.10;;;21.07;;
6013;SDS011;3035;49.928;8.410;2022-12-20T10:27:28;44.37;;;21.77;;
6013;SDS011;3035;49.928;8.410;2022-12-20T10:29:56;49.80;;;20.27;;
6013;SDS011;3035;49.928;8.410;2022-12-20T10:32:25;44.47;;;20.20;;
6013;SDS011;3035;49.928;8.410;2022-12-20T10:34:56;51.60;;;23.57;;
6013;SDS011;3035;49.928;8.410;2022-12-20T10:37:27;51.03;;;22.00;;
6013;SDS011;3035;49.928;8.410;2022-12-20T10:39:55;43.50;;;21.13;;
6013;SDS011;3035;49.928;8.410;2022-12-20T10:42:34;41.13;;;21.67;;
6013;SDS011;3035;49.928;8.410;2022-12-20T10:44:53;53.17;;;22.00;;
6013;SDS011;3035;49.928;8.410;2022-12-20T10:50:13;53.17;;;23.30;;
6013;SDS011;3035;49.928;8.410;2022-12-20T10:52:42;42.73;;;20.57;;
6013;SDS011;3035;49.928;8.410;2022-12-20T10:58:04;44.10;;;20.63;;
6013;SDS011;3035;49.928;8.410;2022-12-20T11:00:32;38.77;;;22.10;;
6013;SDS011;3035;49.928;8.410;2022-12-20T11:03:04;38.03;;;20.63;;
6013;SDS011;3035;49.928;8.410;2022-12-20T11:05:53;42.90;;;22.13;;
6013;SDS011;3035;49.928;8.410;2022-12-20T11:08:22;51.17;;;23.37;;
6013;SDS011;3035;49.928;8.410;2022-12-20T11:10:50;49.43;;;22.23;;
6013;SDS011;3035;49.928;8.410;2022-12-20T11:13:19;44.63;;;21.87;;
6013;SDS011;3035;49.928;8.410;2022-12-20T11:15:48;41.93;;;20.90;;
6013;SDS011;3035;49.928;8.410;2022-12-20T11:18:19;47.63;;;23.23;;
6013;SDS011;3035;49.928;8.410;2022-12-20T11:20:50;47.03;;;21.37;;
6013;SDS011;3035;49.928;8.410;2022-12-20T11:23:46;46.93;;;22.00;;
6013;SDS011;3035;49.928;8.410;2022-12-20T11:26:23;47.70;;;22.50;;
6013;SDS011;3035;49.928;8.410;2022-12-20T11:29:06;48.30;;;22.13;;
6013;SDS011;3035;49.928;8.410;2022-12-20T11:31:43;44.50;;;23.03;;
6013;SDS011;3035;49.928;8.410;2022-12-20T11:34:32;59.40;;;27.77;;
6013;SDS011;3035;49.928;8.410;2022-12-20T11:37:19;62.67;;;30.50;;
6013;SDS011;3035;49.928;8.410;2022-12-20T11:45:29;54.53;;;23.70;;
6013;SDS011;3035;49.928;8.410;2022-12-20T11:48:10;52.67;;;24.70;;
6013;SDS011;3035;49.928;8.410;2022-12-20T11:51:11;46.60;;;25.50;;
6013;SDS011;3035;49.928;8.410;2022-12-20T11:53:42;46.60;;;25.17;;
6013;SDS011;3035;49.928;8.410;2022-12-20T12:02:04;56.90;;;25.13;;
6013;SDS011;3035;49.928;8.410;2022-12-20T12:04:33;42.73;;;23.37;;
6013;SDS011;3035;49.928;8.410;2022-12-20T12:07:03;46.73;;;25.80;;
6013;SDS011;3035;49.928;8.410;2022-12-20T12:09:36;44.23;;;24.07;;
6013;SDS011;3035;49.928;8.410;2022-12-20T12:12:11;40.60;;;22.50;;
6013;SDS011;3035;49.928;8.410;2022-12-20T12:14:48;45.33;;;23.23;;
6013;SDS011;3035;49.928;8.410;2022-12-20T12:17:46;45.83;;;22.80;;
6013;SDS011;3035;49.928;8.410;2022-12-20T12:20:19;59.30;;;22.40;;
6013;SDS011;3035;49.928;8.410;2022-12-20T12:23:11;43.10;;;23.90;;
6013;SDS011;3035;49.928;8.410;2022-12-20T12:25:43;50.70;;;23.83;;
6013;SDS011;3035;49.928;8.410;2022-12-20T12:28:11;44.47;;;23.60;;
6013;SDS011;3035;49.928;8.410;2022-12-20T12:30:43;52.63;;;23.07;;
6013;SDS011;3035;49.928;8.410;2022-12-20T12:33:12;40.67;;;21.30;;
6013;SDS011;3035;49.928;8.410;2022-12-20T12:35:46;41.60;;;22.03;;
6013;SDS011;3035;49.928;8.410;2022-12-20T12:44:54;51.60;;;26.80;;
6013;SDS011;3035;49.928;8.410;2022-12-20T12:47:24;52.17;;;27.23;;
6013;SDS011;3035;49.928;8.410;2022-12-20T12:49:51;54.93;;;26.90;;
6013;SDS011;3035;49.928;8.410;2022-12-20T12:52:27;53.10;;;25.97;;
6013;SDS011;3035;49.928;8.410;2022-12-20T12:58:28;60.97;;;28.80;;
6013;SDS011;3035;49.928;8.410;2022-12-20T13:01:05;54.13;;;28.60;;
6013;SDS011;3035;49.928;8.410;2022-12-20T13:03:44;56.83;;;27.10;;
6013;SDS011;3035;49.928;8.410;2022-12-20T13:18:24;56.73;;;25.93;;
6013;SDS011;3035;49.928;8.410;2022-12-20T13:23:39;40.40;;;22.77;;
6013;SDS011;3035;49.928;8.410;2022-12-20T13:28:54;50.83;;;23.27;;
6013;SDS011;3035;49.928;8.410;2022-12-20T13:31:31;43.23;;;23.50;;
6013;SDS011;3035;49.928;8.410;2022-12-20T13:34:00;43.83;;;21.80;;
6013;SDS011;3035;49.928;8.410;2022-12-20T13:36:30;48.73;;;23.27;;
6013;SDS011;3035;49.928;8.410;2022-12-20T13:39:00;48.10;;;22.57;;
6013;SDS011;3035;49.928;8.410;2022-12-20T13:41:35;39.93;;;21.93;;
6013;SDS011;3035;49.928;8.410;2022-12-20T13:44:09;49.37;;;22.83;;
6013;SDS011;3035;49.928;8.410;2022-12-20T13:46:53;58.80;;;23.10;;
6013;SDS011;3035;49.928;8.410;2022-12-20T13:49:39;43.30;;;23.70;;
6013;SDS011;3035;49.928;8.410;2022-12-20T13:54:58;47.97;;;23.87;;
6013;SDS011;3035;49.928;8.410;2022-12-20T13:57:28;57.83;;;24.03;;
6013;SDS011;3035;49.928;8.410;2022-12-20T13:59:57;45.90;;;23.87;;
6013;SDS011;3035;49.928;8.410;2022-12-20T14:02:28;42.40;;;22.07;;
6013;SDS011;3035;49.928;8.410;2022-12-20T14:04:59;42.77;;;24.13;;
6013;SDS011;3035;49.928;8.410;2022-12-20T14:07:28;46.93;;;25.00;;
6013;SDS011;3035;49.928;8.410;2022-12-20T14:09:58;46.10;;;23.00;;
6013;SDS011;3035;49.928;8.410;2022-12-20T14:12:25;41.73;;;21.87;;
6013;SDS011;3035;49.928;8.410;2022-12-20T14:14:54;48.00;;;25.47;;
6013;SDS011;3035;49.928;8.410;2022-12-20T14:17:26;41.97;;;23.00;;
6013;SDS011;3035;49.928;8.410;2022-12-20T14:22:49;45.00;;;23.77;;
6013;SDS011;3035;49.928;8.410;2022-12-20T14:25:27;41.60;;;23.10;;
6013;SDS011;3035;49.928;8.410;2022-12-20T14:27:55;48.30;;;22.30;;
6013;SDS011;3035;49.928;8.410;2022-12-20T14:35:46;44.03;;;24.10;;
6013;SDS011;3035;49.928;8.410;2022-12-20T14:38:20;53.07;;;25.13;;
6013;SDS011;3035;49.928;8.410;2022-12-20T14:40:49;42.13;;;22.90;;
6013;SDS011;3035;49.928;8.410;2022-12-20T14:43:23;57.00;;;24.50;;
6013;SDS011;3035;49.928;8.410;2022-12-20T14:48:35;41.93;;;22.80;;
6013;SDS011;3035;49.928;8.410;2022-12-20T14:51:04;56.53;;;24.80;;
6013;SDS011;3035;49.928;8.410;2022-12-20T14:53:32;40.80;;;23.87;;
6013;SDS011;3035;49.928;8.410;2022-12-20T14:56:01;43.90;;;24.60;;
6013;SDS011;3035;49.928;8.410;2022-12-20T14:58:31;47.43;;;25.87;;
6013;SDS011;3035;49.928;8.410;2022-12-20T15:01:00;39.73;;;23.97;;
6013;SDS011;3035;49.928;8.410;2022-12-20T15:03:28;42.43;;;23.10;;
6013;SDS011;3035;49.928;8.410;2022-12-20T15:05:57;48.70;;;23.97;;
6013;SDS011;3035;49.928;8.410;2022-12-20T15:08:27;43.23;;;23.10;;
6013;SDS011;3035;49.928;8.410;2022-12-20T15:10:57;41.90;;;22.37;;
6013;SDS011;3035;49.928;8.410;2022-12-20T15:13:32;41.80;;;22.13;;
6013;SDS011;3035;49.928;8.410;2022-12-20T15:16:01;43.10;;;23.60;;
6013;SDS011;3035;49.928;8.410;2022-12-20T15:18:29;40.93;;;22.03;;
6013;SDS011;3035;49.928;8.410;2022-12-20T15:20:59;44.63;;;23.20;;
6013;SDS011;3035;49.928;8.410;2022-12-20T15:23:29;46.83;;;21.80;;
6013;SDS011;3035;49.928;8.410;2022-12-20T15:25:58;41.07;;;22.70;;
6013;SDS011;3035;49.928;8.410;2022-12-20T15:28:26;35.87;;;20.00;;
6013;SDS011;3035;49.928;8.410;2022-12-20T15:30:56;37.87;;;20.27;;
6013;SDS011;3035;49.928;8.410;2022-12-20T15:33:25;38.90;;;21.60;;
6013;SDS011;3035;49.928;8.410;2022-12-20T15:35:53;42.23;;;21.33;;
6013;SDS011;3035;49.928;8.410;2022-12-20T15:38:22;42.50;;;21.97;;
6013;SDS011;3035;49.928;8.410;2022-12-20T15:40:50;53.33;;;21.90;;
6013;SDS011;3035;49.928;8.410;2022-12-20T15:43:19;45.57;;;21.90;;
6013;SDS011;3035;49.928;8.410;2022-12-20T15:45:47;43.97;;;24.47;;
6013;SDS011;3035;49.928;8.410;2022-12-20T15:48:17;46.37;;;22.57;;
6013;SDS011;3035;49.928;8.410;2022-12-20T15:50:47;41.10;;;21.63;;
6013;SDS011;3035;49.928;8.410;2022-12-20T15:53:22;41.37;;;23.60;;
6013;SDS011;3035;49.928;8.410;2022-12-20T15:55:51;54.37;;;24.20;;
6013;SDS011;3035;49.928;8.410;2022-12-20T15:58:19;51.73;;;23.00;;
6013;SDS011;3035;49.928;8.410;2022-12-20T16:00:47;43.37;;;24.90;;
6013;SDS011;3035;49.928;8.410;2022-12-20T16:03:17;52.77;;;25.47;;
6013;SDS011;3035;49.928;8.410;2022-12-20T16:05:46;39.80;;;22.30;;
6013;SDS011;3035;49.928;8.410;2022-12-20T16:08:14;40.93;;;22.90;;
6013;SDS011;3035;49.928;8.410;2022-12-20T16:10:43;44.80;;;24.90;;
6013;SDS011;3035;49.928;8.410;2022-12-20T16:13:15;47.37;;;24.70;;
6013;SDS011;3035;49.928;8.410;2022-12-20T16:15:42;41.90;;;23.83;;
6013;SDS011;3035;49.928;8.410;2022-12-20T16:18:11;48.13;;;25.57;;
6013;SDS011;3035;49.928;8.410;2022-12-20T16:20:39;45.60;;;25.10;;
6013;SDS011;3035;49.928;8.410;2022-12-20T16:23:12;59.90;;;26.40;;
6013;SDS011;3035;49.928;8.410;2022-12-20T16:25:51;47.80;;;25.70;;
6013;SDS011;3035;49.928;8.410;2022-12-20T16:28:19;51.97;;;26.90;;